Aérodrome :
LOGIN :

S'inscrire | Disclaimer

   EN    FR    IT 

 










Légende :    VFR   VFR Marginal   IFR   IFR Intensif   IFR Très Intensif
Visi : 
Plafond : 
>= 8 km
>= 3000ft
5 à 8 km
1000 à 3000 ft
1500m à 5 km
500 à 1000 ft
800 à 1500m
200 à 500 ft
< 800m
< 200 ft
Symboles :   Orages  Brouillard  Fortes neiges  Fortes précipitations  Vent > 20 kt
SIGMETs :   Divers  Orages  Givrage  Turbulence  Onde Orograph.  Cendres Volcan.







- Altitude de l'aérodrome : 194 ft
- Code IATA : LME
- Voir les cartes d'approche


LFRM - Le Mans

DERNIER METAR :
  • 181830Z AUTO 27003KT 230V330 CAVOK 10/06 Q1018 TEMPO 4000 -RA BKN012

METARs EXPIRÉS :
  • 181800Z AUTO VRB03KT 9999 SCT043 OVC180 10/06 Q1017 NOSIG
  • 181730Z AUTO 26004KT 9999 BKN044 10/06 Q1017 NOSIG
  • 181700Z AUTO 29004KT 250V330 9999 OVC043 11/06 Q1017 NOSIG
  • 181630Z AUTO 27003KT 210V330 9999 BKN042 11/06 Q1017 NOSIG
  • 181600Z AUTO 28006KT 230V330 9999 BKN043 12/06 Q1017 NOSIG

TAF TAF LFRM
Valide du 18 à 12h jusqu'au 19 à 12h UTC


181100Z 1812/1912 20007KT CAVOK
TEMPO 1820/1901 4000 -RA BKN012
TEMPO 1902/1909 3000 BR BKN005
Pas de NOTAMs connus pour ce terrain.



MET'MAP, la Météo Aéronautique d'un coup d'oeil ! - Copyright ORBIFLY Décembre 2007 - Disclaimer

ORBIFLY MET'MAP TEAM :

Programmation & Développement : Alexandra Zaïnal
Conception & Développement : Baudouin d'Aumeries
Co-Programmation & Développement : Marc-Olivier Méhu
Soutien technique & logistique : Manuel Goepfert

Contact : metmap@orbifly.com




SOURCES & CREDITS :

   NOAA